Terminal Aerodrome Forecast
Issued by NWS

Home | Current Version | Previous Version | Text Only | Print | Product List | Glossary On
Versions: 1 2 3 4 5 6 7 8 9 10 11 12
000
FTUS42 KMLB 262339
TAFTIX
TAF
KTIX 262339Z 2700/2724 00000KT P6SM BKN100 OVC200
     FM270200 21003KT P6SM SCT080 BKN250
     FM271400 26004KT P6SM SCT030 BKN250
     FM271700 08009KT P6SM VCTS BKN035CB BKN060
      TEMPO 2717/2720 3SM TSRA BKN025CB=

USA.gov is the U.S. government's official web portal to all federal, state and local government web resources and services.